sensor_id;sensor_type;location;lat;lon;timestamp;temperature;humidity
11617;DHT22;5864;52.998;9.068;2023-05-10T00:00:19;16.40;99.90
11617;DHT22;5864;52.998;9.068;2023-05-10T00:03:04;16.50;99.90
11617;DHT22;5864;52.998;9.068;2023-05-10T00:05:50;16.40;99.90
11617;DHT22;5864;52.998;9.068;2023-05-10T00:08:35;16.40;99.90
11617;DHT22;5864;52.998;9.068;2023-05-10T00:11:21;16.40;99.90
11617;DHT22;5864;52.998;9.068;2023-05-10T00:14:07;16.30;99.90
11617;DHT22;5864;52.998;9.068;2023-05-10T00:16:54;16.10;99.90
11617;DHT22;5864;52.998;9.068;2023-05-10T00:19:40;16.20;99.90
11617;DHT22;5864;52.998;9.068;2023-05-10T00:22:25;16.10;99.90
11617;DHT22;5864;52.998;9.068;2023-05-10T00:25:12;16.00;99.90
11617;DHT22;5864;52.998;9.068;2023-05-10T00:27:58;16.10;99.90
11617;DHT22;5864;52.998;9.068;2023-05-10T00:30:45;16.00;99.90
11617;DHT22;5864;52.998;9.068;2023-05-10T00:33:32;16.00;99.90
11617;DHT22;5864;52.998;9.068;2023-05-10T00:36:18;15.90;99.90
11617;DHT22;5864;52.998;9.068;2023-05-10T00:39:03;15.80;99.90
11617;DHT22;5864;52.998;9.068;2023-05-10T00:41:49;15.80;99.90
11617;DHT22;5864;52.998;9.068;2023-05-10T00:44:34;15.80;99.90
11617;DHT22;5864;52.998;9.068;2023-05-10T00:47:20;15.70;99.90
11617;DHT22;5864;52.998;9.068;2023-05-10T00:50:08;15.70;99.90
11617;DHT22;5864;52.998;9.068;2023-05-10T00:52:54;15.60;99.90
11617;DHT22;5864;52.998;9.068;2023-05-10T00:55:40;15.50;99.90
11617;DHT22;5864;52.998;9.068;2023-05-10T00:58:27;15.50;99.90
11617;DHT22;5864;52.998;9.068;2023-05-10T01:01:13;15.50;99.90
11617;DHT22;5864;52.998;9.068;2023-05-10T01:03:59;15.50;99.90
11617;DHT22;5864;52.998;9.068;2023-05-10T01:06:46;15.40;99.90
11617;DHT22;5864;52.998;9.068;2023-05-10T01:09:32;15.40;99.90
11617;DHT22;5864;52.998;9.068;2023-05-10T01:12:18;15.40;99.90
11617;DHT22;5864;52.998;9.068;2023-05-10T01:15:05;15.40;99.90
11617;DHT22;5864;52.998;9.068;2023-05-10T01:17:52;15.40;99.90
11617;DHT22;5864;52.998;9.068;2023-05-10T01:20:43;15.40;99.90
11617;DHT22;5864;52.998;9.068;2023-05-10T01:24:07;15.40;99.90
11617;DHT22;5864;52.998;9.068;2023-05-10T01:27:17;15.40;99.90
11617;DHT22;5864;52.998;9.068;2023-05-10T01:30:33;15.30;99.90
11617;DHT22;5864;52.998;9.068;2023-05-10T01:33:25;15.30;99.90
11617;DHT22;5864;52.998;9.068;2023-05-10T01:36:18;15.20;99.90
11617;DHT22;5864;52.998;9.068;2023-05-10T01:39:14;15.20;99.90
11617;DHT22;5864;52.998;9.068;2023-05-10T01:42:04;15.20;99.90
11617;DHT22;5864;52.998;9.068;2023-05-10T01:44:58;15.20;99.90
11617;DHT22;5864;52.998;9.068;2023-05-10T01:47:51;15.10;99.90
11617;DHT22;5864;52.998;9.068;2023-05-10T01:50:43;15.10;99.90
11617;DHT22;5864;52.998;9.068;2023-05-10T01:53:31;15.10;99.90
11617;DHT22;5864;52.998;9.068;2023-05-10T01:56:19;15.10;99.90
11617;DHT22;5864;52.998;9.068;2023-05-10T01:59:11;15.10;99.90
11617;DHT22;5864;52.998;9.068;2023-05-10T02:01:59;15.00;99.90
11617;DHT22;5864;52.998;9.068;2023-05-10T02:04:46;15.10;99.90
11617;DHT22;5864;52.998;9.068;2023-05-10T02:07:36;15.10;99.90
11617;DHT22;5864;52.998;9.068;2023-05-10T02:10:21;15.00;99.90
11617;DHT22;5864;52.998;9.068;2023-05-10T02:13:07;15.10;99.90
11617;DHT22;5864;52.998;9.068;2023-05-10T02:15:55;15.00;99.90
11617;DHT22;5864;52.998;9.068;2023-05-10T02:18:41;15.00;99.90
11617;DHT22;5864;52.998;9.068;2023-05-10T02:21:28;15.00;99.90
11617;DHT22;5864;52.998;9.068;2023-05-10T02:24:17;14.90;99.90
11617;DHT22;5864;52.998;9.068;2023-05-10T02:27:03;14.90;99.90
11617;DHT22;5864;52.998;9.068;2023-05-10T02:29:50;15.00;99.90
11617;DHT22;5864;52.998;9.068;2023-05-10T02:32:36;14.90;99.90
11617;DHT22;5864;52.998;9.068;2023-05-10T02:35:23;14.90;99.90
11617;DHT22;5864;52.998;9.068;2023-05-10T02:38:09;14.80;99.90
11617;DHT22;5864;52.998;9.068;2023-05-10T02:40:57;14.60;99.90
11617;DHT22;5864;52.998;9.068;2023-05-10T02:43:44;14.70;99.90
11617;DHT22;5864;52.998;9.068;2023-05-10T02:46:30;14.60;99.90
11617;DHT22;5864;52.998;9.068;2023-05-10T02:49:16;14.60;99.90
11617;DHT22;5864;52.998;9.068;2023-05-10T02:52:05;14.60;99.90
11617;DHT22;5864;52.998;9.068;2023-05-10T02:54:55;14.50;99.90
11617;DHT22;5864;52.998;9.068;2023-05-10T02:57:48;14.50;99.90
11617;DHT22;5864;52.998;9.068;2023-05-10T03:00:36;14.50;99.90
11617;DHT22;5864;52.998;9.068;2023-05-10T03:03:21;14.50;99.90
11617;DHT22;5864;52.998;9.068;2023-05-10T03:06:07;14.50;99.90
11617;DHT22;5864;52.998;9.068;2023-05-10T03:08:53;14.50;99.90
11617;DHT22;5864;52.998;9.068;2023-05-10T03:11:47;14.50;99.90
11617;DHT22;5864;52.998;9.068;2023-05-10T03:14:49;14.40;99.90
11617;DHT22;5864;52.998;9.068;2023-05-10T03:17:47;14.30;99.90
11617;DHT22;5864;52.998;9.068;2023-05-10T03:20:35;14.30;99.90
11617;DHT22;5864;52.998;9.068;2023-05-10T03:23:27;14.20;99.90
11617;DHT22;5864;52.998;9.068;2023-05-10T03:26:21;14.10;99.90
11617;DHT22;5864;52.998;9.068;2023-05-10T03:29:10;14.00;99.90
11617;DHT22;5864;52.998;9.068;2023-05-10T03:31:59;14.00;99.90
11617;DHT22;5864;52.998;9.068;2023-05-10T03:34:45;14.10;99.90
11617;DHT22;5864;52.998;9.068;2023-05-10T03:37:30;14.10;99.90
11617;DHT22;5864;52.998;9.068;2023-05-10T03:40:16;14.10;99.90
11617;DHT22;5864;52.998;9.068;2023-05-10T03:43:02;14.00;99.90
11617;DHT22;5864;52.998;9.068;2023-05-10T03:45:48;14.10;99.90
11617;DHT22;5864;52.998;9.068;2023-05-10T03:48:35;14.10;99.90
11617;DHT22;5864;52.998;9.068;2023-05-10T03:51:21;14.20;99.90
11617;DHT22;5864;52.998;9.068;2023-05-10T03:54:07;14.20;99.90
11617;DHT22;5864;52.998;9.068;2023-05-10T03:56:52;14.20;99.90
11617;DHT22;5864;52.998;9.068;2023-05-10T03:59:38;14.10;99.90
11617;DHT22;5864;52.998;9.068;2023-05-10T04:02:24;14.10;99.90
11617;DHT22;5864;52.998;9.068;2023-05-10T04:05:11;14.20;99.90
11617;DHT22;5864;52.998;9.068;2023-05-10T04:07:56;14.20;99.90
11617;DHT22;5864;52.998;9.068;2023-05-10T04:10:43;14.20;99.90
11617;DHT22;5864;52.998;9.068;2023-05-10T04:13:29;14.20;99.90
11617;DHT22;5864;52.998;9.068;2023-05-10T04:16:15;14.20;99.90
11617;DHT22;5864;52.998;9.068;2023-05-10T04:19:00;14.20;99.90
11617;DHT22;5864;52.998;9.068;2023-05-10T04:21:48;14.30;1.00
11617;DHT22;5864;52.998;9.068;2023-05-10T04:24:34;14.20;1.00
11617;DHT22;5864;52.998;9.068;2023-05-10T04:27:20;14.20;1.00
11617;DHT22;5864;52.998;9.068;2023-05-10T04:30:07;14.30;1.00
11617;DHT22;5864;52.998;9.068;2023-05-10T04:32:52;14.10;1.00
11617;DHT22;5864;52.998;9.068;2023-05-10T04:35:38;14.10;1.00
11617;DHT22;5864;52.998;9.068;2023-05-10T04:38:25;14.10;1.00
11617;DHT22;5864;52.998;9.068;2023-05-10T04:41:11;14.00;1.00
11617;DHT22;5864;52.998;9.068;2023-05-10T04:43:57;13.20;1.00
11617;DHT22;5864;52.998;9.068;2023-05-10T04:46:42;14.10;1.00
11617;DHT22;5864;52.998;9.068;2023-05-10T04:49:28;14.10;1.00
11617;DHT22;5864;52.998;9.068;2023-05-10T04:52:14;14.10;1.00
11617;DHT22;5864;52.998;9.068;2023-05-10T04:55:03;13.90;1.00
11617;DHT22;5864;52.998;9.068;2023-05-10T04:57:48;13.70;99.90
11617;DHT22;5864;52.998;9.068;2023-05-10T05:00:34;13.70;99.90
11617;DHT22;5864;52.998;9.068;2023-05-10T05:03:20;13.70;99.90
11617;DHT22;5864;52.998;9.068;2023-05-10T05:06:06;13.70;1.00
11617;DHT22;5864;52.998;9.068;2023-05-10T05:08:52;13.60;99.90
11617;DHT22;5864;52.998;9.068;2023-05-10T05:11:39;13.50;99.90
11617;DHT22;5864;52.998;9.068;2023-05-10T05:14:25;14.50;1.00
11617;DHT22;5864;52.998;9.068;2023-05-10T05:17:11;13.40;1.00
11617;DHT22;5864;52.998;9.068;2023-05-10T05:19:56;13.40;32.80
11617;DHT22;5864;52.998;9.068;2023-05-10T05:22:43;13.30;1.00
11617;DHT22;5864;52.998;9.068;2023-05-10T05:25:28;13.30;1.00
11617;DHT22;5864;52.998;9.068;2023-05-10T05:28:15;13.40;1.00
11617;DHT22;5864;52.998;9.068;2023-05-10T05:31:01;13.40;99.90
11617;DHT22;5864;52.998;9.068;2023-05-10T05:33:46;13.30;99.90
11617;DHT22;5864;52.998;9.068;2023-05-10T05:36:35;13.30;1.00
11617;DHT22;5864;52.998;9.068;2023-05-10T05:39:22;13.30;99.90
11617;DHT22;5864;52.998;9.068;2023-05-10T05:42:08;13.30;1.00
11617;DHT22;5864;52.998;9.068;2023-05-10T05:44:55;13.30;99.90
11617;DHT22;5864;52.998;9.068;2023-05-10T05:47:41;13.20;1.00
11617;DHT22;5864;52.998;9.068;2023-05-10T05:50:26;13.20;99.90
11617;DHT22;5864;52.998;9.068;2023-05-10T05:53:12;13.20;1.00
11617;DHT22;5864;52.998;9.068;2023-05-10T05:55:58;13.10;1.00
11617;DHT22;5864;52.998;9.068;2023-05-10T05:58:44;13.10;1.00
11617;DHT22;5864;52.998;9.068;2023-05-10T06:01:32;13.30;1.00
11617;DHT22;5864;52.998;9.068;2023-05-10T06:04:17;13.30;1.00
11617;DHT22;5864;52.998;9.068;2023-05-10T06:07:03;13.40;1.00
11617;DHT22;5864;52.998;9.068;2023-05-10T06:09:49;13.40;1.00
11617;DHT22;5864;52.998;9.068;2023-05-10T06:12:34;13.40;99.90
11617;DHT22;5864;52.998;9.068;2023-05-10T06:15:20;13.40;1.00
11617;DHT22;5864;52.998;9.068;2023-05-10T06:18:07;13.40;99.90
11617;DHT22;5864;52.998;9.068;2023-05-10T06:20:53;13.20;99.90
11617;DHT22;5864;52.998;9.068;2023-05-10T06:23:38;13.20;99.90
11617;DHT22;5864;52.998;9.068;2023-05-10T06:26:24;13.20;99.90
11617;DHT22;5864;52.998;9.068;2023-05-10T06:29:10;13.10;99.90
11617;DHT22;5864;52.998;9.068;2023-05-10T06:31:55;12.90;1.00
11617;DHT22;5864;52.998;9.068;2023-05-10T06:34:42;12.80;1.00
11617;DHT22;5864;52.998;9.068;2023-05-10T06:37:29;12.70;1.00
11617;DHT22;5864;52.998;9.068;2023-05-10T06:40:15;12.60;1.00
11617;DHT22;5864;52.998;9.068;2023-05-10T06:43:01;12.60;1.00
11617;DHT22;5864;52.998;9.068;2023-05-10T06:45:47;12.70;1.00
11617;DHT22;5864;52.998;9.068;2023-05-10T06:48:33;12.60;1.00
11617;DHT22;5864;52.998;9.068;2023-05-10T06:51:20;12.50;20.60
11617;DHT22;5864;52.998;9.068;2023-05-10T06:54:06;12.30;96.60
11617;DHT22;5864;52.998;9.068;2023-05-10T06:56:52;12.30;99.90
11617;DHT22;5864;52.998;9.068;2023-05-10T06:59:38;12.30;99.90
11617;DHT22;5864;52.998;9.068;2023-05-10T07:02:23;12.20;99.90
11617;DHT22;5864;52.998;9.068;2023-05-10T07:05:09;12.50;99.90
11617;DHT22;5864;52.998;9.068;2023-05-10T07:07:56;12.20;99.90
11617;DHT22;5864;52.998;9.068;2023-05-10T07:10:42;12.30;99.90
11617;DHT22;5864;52.998;9.068;2023-05-10T07:13:27;12.30;99.90
11617;DHT22;5864;52.998;9.068;2023-05-10T07:16:13;12.40;99.90
11617;DHT22;5864;52.998;9.068;2023-05-10T07:18:58;12.40;99.90
11617;DHT22;5864;52.998;9.068;2023-05-10T07:21:44;12.40;99.90
11617;DHT22;5864;52.998;9.068;2023-05-10T07:24:31;12.40;99.90
11617;DHT22;5864;52.998;9.068;2023-05-10T07:27:17;12.60;99.90
11617;DHT22;5864;52.998;9.068;2023-05-10T07:30:02;12.60;99.90
11617;DHT22;5864;52.998;9.068;2023-05-10T07:32:48;12.50;99.90
11617;DHT22;5864;52.998;9.068;2023-05-10T07:35:34;12.70;99.90
11617;DHT22;5864;52.998;9.068;2023-05-10T07:38:19;12.80;99.90
11617;DHT22;5864;52.998;9.068;2023-05-10T07:41:06;12.80;99.90
11617;DHT22;5864;52.998;9.068;2023-05-10T07:43:52;12.90;99.90
11617;DHT22;5864;52.998;9.068;2023-05-10T07:46:38;12.90;99.90
11617;DHT22;5864;52.998;9.068;2023-05-10T07:49:23;13.00;99.90
11617;DHT22;5864;52.998;9.068;2023-05-10T07:52:09;13.10;99.90
11617;DHT22;5864;52.998;9.068;2023-05-10T07:54:55;13.10;99.90
11617;DHT22;5864;52.998;9.068;2023-05-10T07:57:42;13.20;99.90
11617;DHT22;5864;52.998;9.068;2023-05-10T08:00:27;13.10;99.90
11617;DHT22;5864;52.998;9.068;2023-05-10T08:03:14;13.30;99.90
11617;DHT22;5864;52.998;9.068;2023-05-10T08:06:00;13.40;99.90
11617;DHT22;5864;52.998;9.068;2023-05-10T08:08:46;13.50;99.90
11617;DHT22;5864;52.998;9.068;2023-05-10T08:11:33;13.60;99.90
11617;DHT22;5864;52.998;9.068;2023-05-10T08:14:20;13.70;99.90
11617;DHT22;5864;52.998;9.068;2023-05-10T08:17:06;13.90;99.90
11617;DHT22;5864;52.998;9.068;2023-05-10T08:19:51;14.20;99.90
11617;DHT22;5864;52.998;9.068;2023-05-10T08:22:37;14.50;99.90
11617;DHT22;5864;52.998;9.068;2023-05-10T08:25:22;14.80;99.90
11617;DHT22;5864;52.998;9.068;2023-05-10T08:28:08;15.00;99.90
11617;DHT22;5864;52.998;9.068;2023-05-10T08:30:55;15.10;99.90
11617;DHT22;5864;52.998;9.068;2023-05-10T08:33:40;15.30;99.90
11617;DHT22;5864;52.998;9.068;2023-05-10T08:36:26;15.20;99.90
11617;DHT22;5864;52.998;9.068;2023-05-10T08:39:11;15.30;99.90
11617;DHT22;5864;52.998;9.068;2023-05-10T08:42:02;15.30;99.90
11617;DHT22;5864;52.998;9.068;2023-05-10T08:44:48;15.40;99.90
11617;DHT22;5864;52.998;9.068;2023-05-10T08:47:36;15.50;99.90
11617;DHT22;5864;52.998;9.068;2023-05-10T08:50:24;15.60;99.90
11617;DHT22;5864;52.998;9.068;2023-05-10T08:53:11;15.70;99.90
11617;DHT22;5864;52.998;9.068;2023-05-10T08:55:57;15.70;99.90
11617;DHT22;5864;52.998;9.068;2023-05-10T08:58:43;15.90;99.90
11617;DHT22;5864;52.998;9.068;2023-05-10T09:01:31;16.10;99.90
11617;DHT22;5864;52.998;9.068;2023-05-10T09:04:19;16.10;99.90
11617;DHT22;5864;52.998;9.068;2023-05-10T09:07:04;16.20;99.90
11617;DHT22;5864;52.998;9.068;2023-05-10T09:09:50;16.40;99.90
11617;DHT22;5864;52.998;9.068;2023-05-10T09:12:37;16.60;99.90
11617;DHT22;5864;52.998;9.068;2023-05-10T09:15:23;16.80;99.90
11617;DHT22;5864;52.998;9.068;2023-05-10T09:18:09;17.00;99.90
11617;DHT22;5864;52.998;9.068;2023-05-10T09:20:56;17.00;89.50
11617;DHT22;5864;52.998;9.068;2023-05-10T09:23:43;16.80;93.70
11617;DHT22;5864;52.998;9.068;2023-05-10T09:26:29;16.70;99.90
11617;DHT22;5864;52.998;9.068;2023-05-10T09:29:15;16.60;99.90
11617;DHT22;5864;52.998;9.068;2023-05-10T09:32:01;16.60;99.90
11617;DHT22;5864;52.998;9.068;2023-05-10T09:34:49;16.40;99.90
11617;DHT22;5864;52.998;9.068;2023-05-10T09:37:36;16.40;99.90
11617;DHT22;5864;52.998;9.068;2023-05-10T09:40:26;16.70;99.90
11617;DHT22;5864;52.998;9.068;2023-05-10T09:43:13;17.30;99.90
11617;DHT22;5864;52.998;9.068;2023-05-10T09:45:58;17.90;99.90
11617;DHT22;5864;52.998;9.068;2023-05-10T09:48:45;18.40;1.00
11617;DHT22;5864;52.998;9.068;2023-05-10T09:51:31;18.90;1.00
11617;DHT22;5864;52.998;9.068;2023-05-10T09:54:18;19.30;1.00
11617;DHT22;5864;52.998;9.068;2023-05-10T09:57:04;19.40;1.00
11617;DHT22;5864;52.998;9.068;2023-05-10T09:59:50;19.70;99.90
11617;DHT22;5864;52.998;9.068;2023-05-10T10:02:38;19.60;52.30
11617;DHT22;5864;52.998;9.068;2023-05-10T10:05:28;19.30;99.90
11617;DHT22;5864;52.998;9.068;2023-05-10T10:08:14;18.60;1.00
11617;DHT22;5864;52.998;9.068;2023-05-10T10:11:02;18.50;99.90
11617;DHT22;5864;52.998;9.068;2023-05-10T10:13:48;18.40;1.00
11617;DHT22;5864;52.998;9.068;2023-05-10T10:16:34;18.60;1.00
11617;DHT22;5864;52.998;9.068;2023-05-10T10:19:19;19.00;99.90
11617;DHT22;5864;52.998;9.068;2023-05-10T10:22:05;19.40;99.90
11617;DHT22;5864;52.998;9.068;2023-05-10T10:24:51;19.70;1.00
11617;DHT22;5864;52.998;9.068;2023-05-10T10:27:44;19.90;1.00
11617;DHT22;5864;52.998;9.068;2023-05-10T10:30:35;19.70;99.90
11617;DHT22;5864;52.998;9.068;2023-05-10T10:33:33;19.70;1.00
11617;DHT22;5864;52.998;9.068;2023-05-10T10:36:22;19.50;1.00
11617;DHT22;5864;52.998;9.068;2023-05-10T10:39:09;19.30;1.00
11617;DHT22;5864;52.998;9.068;2023-05-10T10:41:56;19.00;99.90
11617;DHT22;5864;52.998;9.068;2023-05-10T10:44:43;18.80;99.90
11617;DHT22;5864;52.998;9.068;2023-05-10T10:47:29;18.70;99.90
11617;DHT22;5864;52.998;9.068;2023-05-10T10:50:17;18.50;1.00
11617;DHT22;5864;52.998;9.068;2023-05-10T10:53:10;18.40;97.70
11617;DHT22;5864;52.998;9.068;2023-05-10T10:56:06;18.30;1.00
11617;DHT22;5864;52.998;9.068;2023-05-10T10:58:53;18.20;99.90
11617;DHT22;5864;52.998;9.068;2023-05-10T11:01:51;18.10;1.00
11617;DHT22;5864;52.998;9.068;2023-05-10T11:04:42;18.20;99.90
11617;DHT22;5864;52.998;9.068;2023-05-10T11:07:31;18.30;1.00
11617;DHT22;5864;52.998;9.068;2023-05-10T11:10:19;18.40;1.00
11617;DHT22;5864;52.998;9.068;2023-05-10T11:13:05;18.60;1.00
11617;DHT22;5864;52.998;9.068;2023-05-10T11:15:51;18.60;99.90
11617;DHT22;5864;52.998;9.068;2023-05-10T11:18:38;18.70;99.90
11617;DHT22;5864;52.998;9.068;2023-05-10T11:21:23;18.70;1.00
11617;DHT22;5864;52.998;9.068;2023-05-10T11:24:13;18.60;99.90
11617;DHT22;5864;52.998;9.068;2023-05-10T11:26:59;18.40;99.90
11617;DHT22;5864;52.998;9.068;2023-05-10T11:29:45;18.10;70.70
11617;DHT22;5864;52.998;9.068;2023-05-10T11:32:30;18.00;1.00
11617;DHT22;5864;52.998;9.068;2023-05-10T11:35:17;18.00;99.90
11617;DHT22;5864;52.998;9.068;2023-05-10T11:38:05;18.10;1.00
11617;DHT22;5864;52.998;9.068;2023-05-10T11:40:52;18.50;99.90
11617;DHT22;5864;52.998;9.068;2023-05-10T11:43:38;18.70;99.90
11617;DHT22;5864;52.998;9.068;2023-05-10T11:46:26;19.30;99.90
11617;DHT22;5864;52.998;9.068;2023-05-10T11:49:12;19.60;56.90
11617;DHT22;5864;52.998;9.068;2023-05-10T11:52:05;19.90;1.00
11617;DHT22;5864;52.998;9.068;2023-05-10T11:54:51;20.40;99.90
11617;DHT22;5864;52.998;9.068;2023-05-10T11:57:37;20.40;99.90
11617;DHT22;5864;52.998;9.068;2023-05-10T12:00:25;20.50;99.90
11617;DHT22;5864;52.998;9.068;2023-05-10T12:03:11;20.50;99.90
11617;DHT22;5864;52.998;9.068;2023-05-10T12:05:57;20.30;99.90
11617;DHT22;5864;52.998;9.068;2023-05-10T12:08:47;20.10;99.90
11617;DHT22;5864;52.998;9.068;2023-05-10T12:11:37;19.60;99.90
11617;DHT22;5864;52.998;9.068;2023-05-10T12:14:23;19.40;1.00
11617;DHT22;5864;52.998;9.068;2023-05-10T12:17:12;19.30;1.00
11617;DHT22;5864;52.998;9.068;2023-05-10T12:19:59;19.30;99.90
11617;DHT22;5864;52.998;9.068;2023-05-10T12:22:51;19.60;99.90
11617;DHT22;5864;52.998;9.068;2023-05-10T12:25:38;19.70;99.90
11617;DHT22;5864;52.998;9.068;2023-05-10T12:28:23;19.80;1.00
11617;DHT22;5864;52.998;9.068;2023-05-10T12:31:10;19.50;1.00
11617;DHT22;5864;52.998;9.068;2023-05-10T12:33:56;19.40;1.00
11617;DHT22;5864;52.998;9.068;2023-05-10T12:36:41;19.60;1.00
11617;DHT22;5864;52.998;9.068;2023-05-10T12:39:38;19.50;99.90
11617;DHT22;5864;52.998;9.068;2023-05-10T12:42:26;19.20;1.00
11617;DHT22;5864;52.998;9.068;2023-05-10T12:45:11;18.70;99.90
11617;DHT22;5864;52.998;9.068;2023-05-10T12:47:57;18.10;99.90
11617;DHT22;5864;52.998;9.068;2023-05-10T12:50:42;17.80;99.90
11617;DHT22;5864;52.998;9.068;2023-05-10T12:53:29;17.40;1.00
11617;DHT22;5864;52.998;9.068;2023-05-10T12:56:15;17.30;1.00
11617;DHT22;5864;52.998;9.068;2023-05-10T12:59:02;17.40;1.00
11617;DHT22;5864;52.998;9.068;2023-05-10T13:01:48;17.40;44.60
11617;DHT22;5864;52.998;9.068;2023-05-10T13:04:34;17.80;99.90
11617;DHT22;5864;52.998;9.068;2023-05-10T13:07:21;18.20;1.00
11617;DHT22;5864;52.998;9.068;2023-05-10T13:10:07;18.40;1.00
11617;DHT22;5864;52.998;9.068;2023-05-10T13:12:52;18.60;99.90
11617;DHT22;5864;52.998;9.068;2023-05-10T13:15:39;18.60;1.00
11617;DHT22;5864;52.998;9.068;2023-05-10T13:18:25;18.50;95.90
11617;DHT22;5864;52.998;9.068;2023-05-10T13:21:10;18.40;99.90
11617;DHT22;5864;52.998;9.068;2023-05-10T13:23:56;18.60;1.00
11617;DHT22;5864;52.998;9.068;2023-05-10T13:26:43;18.70;1.00
11617;DHT22;5864;52.998;9.068;2023-05-10T13:29:28;18.60;99.90
11617;DHT22;5864;52.998;9.068;2023-05-10T13:32:15;18.40;99.90
11617;DHT22;5864;52.998;9.068;2023-05-10T13:35:01;18.40;1.00
11617;DHT22;5864;52.998;9.068;2023-05-10T13:37:47;18.20;1.00
11617;DHT22;5864;52.998;9.068;2023-05-10T13:40:33;18.20;90.30
11617;DHT22;5864;52.998;9.068;2023-05-10T13:43:20;18.20;1.00
11617;DHT22;5864;52.998;9.068;2023-05-10T13:46:06;18.10;1.00
11617;DHT22;5864;52.998;9.068;2023-05-10T13:48:53;18.10;1.00
11617;DHT22;5864;52.998;9.068;2023-05-10T13:51:39;18.10;99.90
11617;DHT22;5864;52.998;9.068;2023-05-10T13:54:25;18.10;1.00
11617;DHT22;5864;52.998;9.068;2023-05-10T13:57:14;18.30;99.90
11617;DHT22;5864;52.998;9.068;2023-05-10T14:00:00;18.40;99.90
11617;DHT22;5864;52.998;9.068;2023-05-10T14:02:46;18.50;1.00
11617;DHT22;5864;52.998;9.068;2023-05-10T14:05:33;18.60;50.60
11617;DHT22;5864;52.998;9.068;2023-05-10T14:08:19;18.50;99.90
11617;DHT22;5864;52.998;9.068;2023-05-10T14:11:05;18.60;1.00
11617;DHT22;5864;52.998;9.068;2023-05-10T14:13:50;18.80;1.00
11617;DHT22;5864;52.998;9.068;2023-05-10T14:16:36;19.00;99.90
11617;DHT22;5864;52.998;9.068;2023-05-10T14:19:21;19.00;22.00
11617;DHT22;5864;52.998;9.068;2023-05-10T14:22:09;18.80;1.00
11617;DHT22;5864;52.998;9.068;2023-05-10T14:24:54;18.80;99.90
11617;DHT22;5864;52.998;9.068;2023-05-10T14:27:41;18.70;99.90
11617;DHT22;5864;52.998;9.068;2023-05-10T14:30:26;18.50;1.00
11617;DHT22;5864;52.998;9.068;2023-05-10T14:33:12;18.50;99.90
11617;DHT22;5864;52.998;9.068;2023-05-10T14:35:58;18.40;99.90
11617;DHT22;5864;52.998;9.068;2023-05-10T14:38:45;18.70;99.90
11617;DHT22;5864;52.998;9.068;2023-05-10T14:41:31;18.90;1.00
11617;DHT22;5864;52.998;9.068;2023-05-10T14:44:17;19.00;99.90
11617;DHT22;5864;52.998;9.068;2023-05-10T14:47:02;19.40;1.00
11617;DHT22;5864;52.998;9.068;2023-05-10T14:49:48;19.70;1.00
11617;DHT22;5864;52.998;9.068;2023-05-10T14:52:34;20.00;1.00
11617;DHT22;5864;52.998;9.068;2023-05-10T14:55:21;19.80;99.90
11617;DHT22;5864;52.998;9.068;2023-05-10T14:58:07;20.00;1.00
11617;DHT22;5864;52.998;9.068;2023-05-10T15:00:53;19.90;1.00
11617;DHT22;5864;52.998;9.068;2023-05-10T15:03:38;20.50;1.00
11617;DHT22;5864;52.998;9.068;2023-05-10T15:06:30;20.70;1.00
11617;DHT22;5864;52.998;9.068;2023-05-10T15:09:16;21.00;1.00
11617;DHT22;5864;52.998;9.068;2023-05-10T15:12:03;21.20;1.00
11617;DHT22;5864;52.998;9.068;2023-05-10T15:14:49;21.30;1.00
11617;DHT22;5864;52.998;9.068;2023-05-10T15:17:35;21.60;1.00
11617;DHT22;5864;52.998;9.068;2023-05-10T15:20:20;21.40;1.00
11617;DHT22;5864;52.998;9.068;2023-05-10T15:23:06;21.10;1.00
11617;DHT22;5864;52.998;9.068;2023-05-10T15:25:52;20.90;1.00
11617;DHT22;5864;52.998;9.068;2023-05-10T15:28:40;20.80;1.00
11617;DHT22;5864;52.998;9.068;2023-05-10T15:31:26;20.40;1.00
11617;DHT22;5864;52.998;9.068;2023-05-10T15:34:12;20.40;1.00
11617;DHT22;5864;52.998;9.068;2023-05-10T15:36:57;20.40;1.00
11617;DHT22;5864;52.998;9.068;2023-05-10T15:39:43;20.10;1.00
11617;DHT22;5864;52.998;9.068;2023-05-10T15:42:29;19.90;1.00
11617;DHT22;5864;52.998;9.068;2023-05-10T15:45:17;19.30;99.90
11617;DHT22;5864;52.998;9.068;2023-05-10T15:48:02;19.50;1.00
11617;DHT22;5864;52.998;9.068;2023-05-10T15:50:48;19.60;23.60
11617;DHT22;5864;52.998;9.068;2023-05-10T15:53:34;19.50;99.90
11617;DHT22;5864;52.998;9.068;2023-05-10T15:56:19;19.80;99.90
11617;DHT22;5864;52.998;9.068;2023-05-10T15:59:05;20.10;96.70
11617;DHT22;5864;52.998;9.068;2023-05-10T16:01:53;20.00;1.00
11617;DHT22;5864;52.998;9.068;2023-05-10T16:04:38;20.30;20.20
11617;DHT22;5864;52.998;9.068;2023-05-10T16:07:24;19.90;1.00
11617;DHT22;5864;52.998;9.068;2023-05-10T16:10:10;19.50;1.00
11617;DHT22;5864;52.998;9.068;2023-05-10T16:12:56;19.30;1.00
11617;DHT22;5864;52.998;9.068;2023-05-10T16:15:42;19.00;1.00
11617;DHT22;5864;52.998;9.068;2023-05-10T16:18:29;18.80;7.80
11617;DHT22;5864;52.998;9.068;2023-05-10T16:21:14;18.80;1.00
11617;DHT22;5864;52.998;9.068;2023-05-10T16:24:01;18.90;1.00
11617;DHT22;5864;52.998;9.068;2023-05-10T16:26:47;18.80;1.00
11617;DHT22;5864;52.998;9.068;2023-05-10T16:29:32;18.60;1.00
11617;DHT22;5864;52.998;9.068;2023-05-10T16:32:18;18.80;1.00
11617;DHT22;5864;52.998;9.068;2023-05-10T16:35:06;18.60;1.00
11617;DHT22;5864;52.998;9.068;2023-05-10T16:37:52;18.60;1.00
11617;DHT22;5864;52.998;9.068;2023-05-10T16:40:37;18.70;1.40
11617;DHT22;5864;52.998;9.068;2023-05-10T16:43:23;18.60;1.00
11617;DHT22;5864;52.998;9.068;2023-05-10T16:46:09;18.60;99.90
11617;DHT22;5864;52.998;9.068;2023-05-10T16:48:55;18.40;71.00
11617;DHT22;5864;52.998;9.068;2023-05-10T16:51:44;18.10;99.90
11617;DHT22;5864;52.998;9.068;2023-05-10T16:54:29;18.00;1.00
11617;DHT22;5864;52.998;9.068;2023-05-10T16:57:15;18.10;1.00
11617;DHT22;5864;52.998;9.068;2023-05-10T17:00:00;18.40;99.90
11617;DHT22;5864;52.998;9.068;2023-05-10T17:02:46;18.20;1.00
11617;DHT22;5864;52.998;9.068;2023-05-10T17:05:31;17.70;99.90
11617;DHT22;5864;52.998;9.068;2023-05-10T17:08:19;17.70;1.00
11617;DHT22;5864;52.998;9.068;2023-05-10T17:11:05;17.60;99.90
11617;DHT22;5864;52.998;9.068;2023-05-10T17:13:51;17.60;1.00
11617;DHT22;5864;52.998;9.068;2023-05-10T17:16:36;17.40;99.90
11617;DHT22;5864;52.998;9.068;2023-05-10T17:19:22;17.30;1.00
11617;DHT22;5864;52.998;9.068;2023-05-10T17:22:08;17.50;99.90
11617;DHT22;5864;52.998;9.068;2023-05-10T17:24:55;17.60;99.90
11617;DHT22;5864;52.998;9.068;2023-05-10T17:27:41;17.90;99.90
11617;DHT22;5864;52.998;9.068;2023-05-10T17:30:26;17.80;1.00
11617;DHT22;5864;52.998;9.068;2023-05-10T17:33:15;17.80;1.00
11617;DHT22;5864;52.998;9.068;2023-05-10T17:36:01;18.00;1.00
11617;DHT22;5864;52.998;9.068;2023-05-10T17:38:46;17.90;1.00
11617;DHT22;5864;52.998;9.068;2023-05-10T17:41:33;17.70;1.00
11617;DHT22;5864;52.998;9.068;2023-05-10T17:44:19;17.70;1.00
11617;DHT22;5864;52.998;9.068;2023-05-10T17:47:05;17.50;99.90
11617;DHT22;5864;52.998;9.068;2023-05-10T17:49:51;17.50;1.00
11617;DHT22;5864;52.998;9.068;2023-05-10T17:52:37;17.70;1.00
11617;DHT22;5864;52.998;9.068;2023-05-10T17:55:22;17.80;1.00
11617;DHT22;5864;52.998;9.068;2023-05-10T17:58:11;17.90;99.90